createdAt,value
2023-02-16T00:09:10.022Z,2.38
2023-02-16T00:19:37.450Z,2.42
2023-02-16T00:30:02.286Z,2.45
2023-02-16T00:40:26.578Z,2.44
2023-02-16T00:50:50.856Z,2.51
2023-02-16T01:01:18.101Z,2.57
2023-02-16T01:11:42.410Z,2.52
2023-02-16T01:22:06.591Z,2.55
2023-02-16T01:32:30.771Z,2.46
2023-02-16T01:43:03.034Z,2.41
2023-02-16T01:53:33.483Z,2.35
2023-02-16T02:04:16.360Z,2.36
2023-02-16T02:14:40.969Z,2.33
2023-02-16T02:25:22.662Z,2.34
2023-02-16T02:35:57.271Z,2.31
2023-02-16T02:46:26.198Z,2.28
2023-02-16T02:57:14.441Z,2.28
2023-02-16T03:07:47.076Z,2.17
2023-02-16T03:18:30.523Z,2.11
2023-02-16T03:29:14.123Z,2.06
2023-02-16T03:39:53.220Z,2.04
2023-02-16T03:50:18.271Z,1.96
2023-02-16T04:00:42.802Z,1.91
2023-02-16T04:11:21.784Z,1.90
2023-02-16T04:21:46.129Z,1.88
2023-02-16T04:32:10.461Z,1.94
2023-02-16T04:42:34.714Z,1.94
2023-02-16T04:52:58.972Z,2.00
2023-02-16T05:03:23.208Z,1.91
2023-02-16T05:14:06.600Z,1.90
2023-02-16T05:24:31.477Z,1.78
2023-02-16T05:34:56.229Z,1.68
2023-02-16T05:45:21.156Z,1.62
2023-02-16T05:55:45.457Z,1.59
2023-02-16T06:06:09.921Z,1.73
2023-02-16T06:16:35.314Z,1.84
2023-02-16T06:26:59.557Z,1.96
2023-02-16T06:37:25.549Z,2.04
2023-02-16T06:47:50.549Z,2.04
2023-02-16T06:58:15.424Z,2.04
2023-02-16T07:08:40.234Z,2.07
2023-02-16T07:19:06.370Z,2.16
2023-02-16T07:29:31.107Z,2.35
2023-02-16T07:39:56.565Z,2.57
2023-02-16T07:50:21.467Z,2.95
2023-02-16T08:00:46.278Z,3.27
2023-02-16T08:11:12.860Z,3.53
2023-02-16T08:21:38.745Z,3.74
2023-02-16T08:32:07.078Z,3.92
2023-02-16T08:42:31.451Z,4.19
2023-02-16T08:52:55.585Z,4.39
2023-02-16T09:03:20.132Z,4.59
2023-02-16T09:13:44.679Z,4.77
2023-02-16T09:24:10.960Z,4.86
2023-02-16T09:34:36.724Z,5.00
2023-02-16T09:45:06.941Z,5.10
2023-02-16T09:55:39.747Z,5.30
2023-02-16T10:06:21.649Z,5.54
2023-02-16T10:16:51.299Z,5.69
2023-02-16T10:27:16.731Z,5.87
2023-02-16T10:37:53.629Z,5.97
2023-02-16T10:48:17.798Z,6.02
2023-02-16T10:58:42.955Z,6.15
2023-02-16T11:09:07.216Z,6.26
2023-02-16T11:19:32.775Z,6.42
2023-02-16T11:30:22.020Z,6.60
2023-02-16T11:40:52.606Z,6.72
2023-02-16T11:51:31.320Z,6.87
2023-02-16T12:02:27.608Z,7.05
2023-02-16T12:13:04.091Z,7.20
2023-02-16T12:23:37.732Z,7.30
2023-02-16T12:34:23.540Z,7.33
2023-02-16T12:44:50.835Z,7.37
2023-02-16T12:55:21.816Z,7.35
2023-02-16T13:05:54.764Z,7.31
2023-02-16T13:16:30.417Z,7.38
2023-02-16T13:27:09.127Z,7.38
2023-02-16T13:37:52.764Z,7.42
2023-02-16T13:48:23.483Z,7.45
2023-02-16T13:58:47.915Z,7.47
2023-02-16T14:09:36.169Z,7.42
2023-02-16T14:20:03.463Z,7.35
2023-02-16T14:30:32.043Z,7.25
2023-02-16T14:40:56.573Z,7.14
2023-02-16T14:51:41.442Z,7.10
2023-02-16T15:02:27.444Z,7.02
2023-02-16T15:12:52.582Z,6.96
2023-02-16T15:23:21.418Z,6.83
2023-02-16T15:33:56.257Z,6.72
2023-02-16T15:44:33.672Z,6.59
2023-02-16T15:54:59.769Z,6.56
2023-02-16T16:05:26.835Z,6.42
2023-02-16T16:15:52.154Z,6.18
2023-02-16T16:26:20.244Z,5.99
2023-02-16T16:36:53.570Z,5.74
2023-02-16T16:47:25.213Z,5.53
2023-02-16T16:57:50.906Z,5.48
2023-02-16T17:08:15.137Z,5.47
2023-02-16T17:18:39.568Z,5.27
2023-02-16T17:29:04.954Z,5.19
2023-02-16T17:39:29.199Z,5.18
2023-02-16T17:49:53.650Z,4.89
2023-02-16T18:00:22.548Z,4.59
2023-02-16T18:10:49.856Z,4.58
2023-02-16T18:21:14.305Z,4.55
2023-02-16T18:31:39.906Z,4.31
2023-02-16T18:42:04.635Z,4.32
2023-02-16T18:52:29.691Z,4.40
2023-02-16T19:02:57.514Z,4.16
2023-02-16T19:13:21.664Z,4.25
2023-02-16T19:23:47.358Z,4.48
2023-02-16T19:34:12.381Z,4.75
2023-02-16T19:44:36.844Z,4.87
2023-02-16T19:55:01.178Z,4.66
2023-02-16T20:05:25.444Z,4.17
2023-02-16T20:15:49.699Z,3.98
2023-02-16T20:26:18.080Z,4.22
2023-02-16T20:36:42.274Z,4.48
2023-02-16T20:47:07.504Z,4.47
2023-02-16T20:57:31.747Z,4.32
2023-02-16T21:07:56.003Z,4.49
2023-02-16T21:18:20.881Z,4.45
2023-02-16T21:28:46.316Z,4.15
2023-02-16T21:39:10.572Z,4.07
2023-02-16T21:49:34.731Z,4.08
2023-02-16T21:59:58.932Z,3.80
2023-02-16T22:10:23.343Z,3.63
2023-02-16T22:20:47.668Z,3.67
2023-02-16T22:31:11.889Z,3.94
2023-02-16T22:41:36.176Z,4.23
2023-02-16T22:52:00.367Z,4.27
2023-02-16T23:02:24.661Z,4.43
2023-02-16T23:12:48.914Z,4.40
2023-02-16T23:23:13.141Z,4.31
2023-02-16T23:33:37.407Z,4.29
2023-02-16T23:44:01.898Z,4.00
2023-02-16T23:54:26.184Z,3.65
